sensor_id;sensor_type;location;lat;lon;timestamp;P1;durP1;ratioP1;P2;durP2;ratioP2
21810;SDS011;11067;48.788;9.208;2023-02-11T00:00:59;34.87;;;17.90;;
21810;SDS011;11067;48.788;9.208;2023-02-11T00:03:24;36.93;;;18.90;;
21810;SDS011;11067;48.788;9.208;2023-02-11T00:05:57;35.53;;;17.83;;
21810;SDS011;11067;48.788;9.208;2023-02-11T00:08:26;35.80;;;18.92;;
21810;SDS011;11067;48.788;9.208;2023-02-11T00:10:52;34.45;;;18.75;;
21810;SDS011;11067;48.788;9.208;2023-02-11T00:13:19;36.13;;;18.77;;
21810;SDS011;11067;48.788;9.208;2023-02-11T00:15:45;38.95;;;19.75;;
21810;SDS011;11067;48.788;9.208;2023-02-11T00:18:10;36.53;;;18.73;;
21810;SDS011;11067;48.788;9.208;2023-02-11T00:20:39;39.40;;;19.83;;
21810;SDS011;11067;48.788;9.208;2023-02-11T00:23:05;45.72;;;19.75;;
21810;SDS011;11067;48.788;9.208;2023-02-11T00:25:30;36.30;;;19.07;;
21810;SDS011;11067;48.788;9.208;2023-02-11T00:27:56;37.33;;;19.63;;
21810;SDS011;11067;48.788;9.208;2023-02-11T00:30:21;36.60;;;19.40;;
21810;SDS011;11067;48.788;9.208;2023-02-11T00:32:47;36.27;;;18.83;;
21810;SDS011;11067;48.788;9.208;2023-02-11T00:35:13;36.53;;;19.47;;
21810;SDS011;11067;48.788;9.208;2023-02-11T00:37:38;36.13;;;19.20;;
21810;SDS011;11067;48.788;9.208;2023-02-11T00:40:04;36.45;;;18.13;;
21810;SDS011;11067;48.788;9.208;2023-02-11T00:42:30;35.95;;;18.50;;
21810;SDS011;11067;48.788;9.208;2023-02-11T00:44:55;34.88;;;18.25;;
21810;SDS011;11067;48.788;9.208;2023-02-11T00:47:21;33.38;;;17.52;;
21810;SDS011;11067;48.788;9.208;2023-02-11T00:49:46;36.08;;;18.48;;
21810;SDS011;11067;48.788;9.208;2023-02-11T00:52:12;33.42;;;17.92;;
21810;SDS011;11067;48.788;9.208;2023-02-11T00:54:38;34.80;;;18.48;;
21810;SDS011;11067;48.788;9.208;2023-02-11T00:57:03;35.72;;;18.27;;
21810;SDS011;11067;48.788;9.208;2023-02-11T00:59:29;38.58;;;18.73;;
21810;SDS011;11067;48.788;9.208;2023-02-11T01:01:54;33.85;;;19.05;;
21810;SDS011;11067;48.788;9.208;2023-02-11T01:04:20;37.40;;;18.90;;
21810;SDS011;11067;48.788;9.208;2023-02-11T01:06:46;40.22;;;20.40;;
21810;SDS011;11067;48.788;9.208;2023-02-11T01:09:11;40.92;;;19.50;;
21810;SDS011;11067;48.788;9.208;2023-02-11T01:11:37;38.10;;;19.50;;
21810;SDS011;11067;48.788;9.208;2023-02-11T01:14:03;36.10;;;18.40;;
21810;SDS011;11067;48.788;9.208;2023-02-11T01:16:28;34.00;;;18.83;;
21810;SDS011;11067;48.788;9.208;2023-02-11T01:18:54;38.23;;;18.90;;
21810;SDS011;11067;48.788;9.208;2023-02-11T01:21:19;35.13;;;18.67;;
21810;SDS011;11067;48.788;9.208;2023-02-11T01:23:45;37.83;;;20.77;;
21810;SDS011;11067;48.788;9.208;2023-02-11T01:26:10;37.13;;;18.67;;
21810;SDS011;11067;48.788;9.208;2023-02-11T01:28:36;35.23;;;19.70;;
21810;SDS011;11067;48.788;9.208;2023-02-11T01:31:02;39.07;;;18.40;;
21810;SDS011;11067;48.788;9.208;2023-02-11T01:33:28;34.13;;;17.90;;
21810;SDS011;11067;48.788;9.208;2023-02-11T01:35:54;37.27;;;18.97;;
21810;SDS011;11067;48.788;9.208;2023-02-11T01:38:23;40.73;;;20.53;;
21810;SDS011;11067;48.788;9.208;2023-02-11T01:40:51;42.38;;;19.73;;
21810;SDS011;11067;48.788;9.208;2023-02-11T01:43:18;37.30;;;18.92;;
21810;SDS011;11067;48.788;9.208;2023-02-11T01:48:14;35.67;;;19.20;;
21810;SDS011;11067;48.788;9.208;2023-02-11T01:50:54;35.97;;;19.57;;
21810;SDS011;11067;48.788;9.208;2023-02-11T01:53:25;33.72;;;18.98;;
21810;SDS011;11067;48.788;9.208;2023-02-11T01:56:10;37.58;;;20.17;;
21810;SDS011;11067;48.788;9.208;2023-02-11T01:58:56;36.28;;;19.73;;
21810;SDS011;11067;48.788;9.208;2023-02-11T02:01:28;37.53;;;19.80;;
21810;SDS011;11067;48.788;9.208;2023-02-11T02:03:58;38.30;;;19.63;;
21810;SDS011;11067;48.788;9.208;2023-02-11T02:06:43;39.42;;;20.33;;
21810;SDS011;11067;48.788;9.208;2023-02-11T02:09:22;37.80;;;19.33;;
21810;SDS011;11067;48.788;9.208;2023-02-11T02:11:51;36.95;;;19.67;;
21810;SDS011;11067;48.788;9.208;2023-02-11T02:14:16;37.27;;;19.13;;
21810;SDS011;11067;48.788;9.208;2023-02-11T02:16:42;39.97;;;20.70;;
21810;SDS011;11067;48.788;9.208;2023-02-11T02:25:09;35.75;;;19.38;;
21810;SDS011;11067;48.788;9.208;2023-02-11T02:30:59;40.90;;;19.60;;
21810;SDS011;11067;48.788;9.208;2023-02-11T02:33:49;38.50;;;19.23;;
21810;SDS011;11067;48.788;9.208;2023-02-11T02:36:34;38.30;;;19.92;;
21810;SDS011;11067;48.788;9.208;2023-02-11T02:39:07;37.42;;;18.95;;
21810;SDS011;11067;48.788;9.208;2023-02-11T02:41:36;39.17;;;20.25;;
21810;SDS011;11067;48.788;9.208;2023-02-11T02:44:03;34.43;;;19.83;;
21810;SDS011;11067;48.788;9.208;2023-02-11T02:46:30;36.58;;;19.42;;
21810;SDS011;11067;48.788;9.208;2023-02-11T02:48:57;38.40;;;19.70;;
21810;SDS011;11067;48.788;9.208;2023-02-11T02:51:33;40.08;;;19.48;;
21810;SDS011;11067;48.788;9.208;2023-02-11T03:02:13;40.15;;;18.67;;
21810;SDS011;11067;48.788;9.208;2023-02-11T03:05:09;32.85;;;17.88;;
21810;SDS011;11067;48.788;9.208;2023-02-11T03:10:23;37.15;;;18.88;;
21810;SDS011;11067;48.788;9.208;2023-02-11T03:12:50;34.30;;;18.85;;
21810;SDS011;11067;48.788;9.208;2023-02-11T03:15:19;37.13;;;19.20;;
21810;SDS011;11067;48.788;9.208;2023-02-11T03:17:47;35.25;;;17.70;;
21810;SDS011;11067;48.788;9.208;2023-02-11T03:20:16;38.35;;;19.40;;
21810;SDS011;11067;48.788;9.208;2023-02-11T03:22:47;38.97;;;18.42;;
21810;SDS011;11067;48.788;9.208;2023-02-11T03:25:20;37.70;;;19.80;;
21810;SDS011;11067;48.788;9.208;2023-02-11T03:27:51;39.92;;;20.25;;
21810;SDS011;11067;48.788;9.208;2023-02-11T03:30:45;34.53;;;18.80;;
21810;SDS011;11067;48.788;9.208;2023-02-11T03:33:29;33.88;;;18.55;;
21810;SDS011;11067;48.788;9.208;2023-02-11T03:36:03;38.07;;;19.10;;
21810;SDS011;11067;48.788;9.208;2023-02-11T03:38:35;41.05;;;18.73;;
21810;SDS011;11067;48.788;9.208;2023-02-11T03:41:07;35.20;;;19.03;;
21810;SDS011;11067;48.788;9.208;2023-02-11T03:43:42;34.60;;;18.90;;
21810;SDS011;11067;48.788;9.208;2023-02-11T03:46:11;37.00;;;18.17;;
21810;SDS011;11067;48.788;9.208;2023-02-11T03:48:40;36.03;;;18.80;;
21810;SDS011;11067;48.788;9.208;2023-02-11T03:51:10;37.00;;;19.50;;
21810;SDS011;11067;48.788;9.208;2023-02-11T03:53:37;44.15;;;20.23;;
21810;SDS011;11067;48.788;9.208;2023-02-11T03:56:07;36.38;;;19.02;;
21810;SDS011;11067;48.788;9.208;2023-02-11T03:58:37;39.95;;;18.98;;
21810;SDS011;11067;48.788;9.208;2023-02-11T04:01:02;37.47;;;18.95;;
21810;SDS011;11067;48.788;9.208;2023-02-11T04:03:29;36.72;;;19.02;;
21810;SDS011;11067;48.788;9.208;2023-02-11T04:05:56;35.25;;;18.65;;
21810;SDS011;11067;48.788;9.208;2023-02-11T04:08:22;31.60;;;17.95;;
21810;SDS011;11067;48.788;9.208;2023-02-11T04:10:47;36.38;;;18.88;;
21810;SDS011;11067;48.788;9.208;2023-02-11T04:13:13;35.05;;;18.75;;
21810;SDS011;11067;48.788;9.208;2023-02-11T04:15:39;34.00;;;18.13;;
21810;SDS011;11067;48.788;9.208;2023-02-11T04:18:04;40.83;;;20.03;;
21810;SDS011;11067;48.788;9.208;2023-02-11T04:20:30;40.07;;;21.23;;
21810;SDS011;11067;48.788;9.208;2023-02-11T04:22:55;41.63;;;18.87;;
21810;SDS011;11067;48.788;9.208;2023-02-11T04:25:21;30.90;;;18.57;;
21810;SDS011;11067;48.788;9.208;2023-02-11T04:27:46;33.80;;;18.57;;
21810;SDS011;11067;48.788;9.208;2023-02-11T04:30:12;33.97;;;17.77;;
21810;SDS011;11067;48.788;9.208;2023-02-11T04:32:38;33.57;;;18.23;;
21810;SDS011;11067;48.788;9.208;2023-02-11T04:35:04;33.23;;;17.97;;
21810;SDS011;11067;48.788;9.208;2023-02-11T04:37:30;36.17;;;17.88;;
21810;SDS011;11067;48.788;9.208;2023-02-11T04:39:55;33.07;;;18.07;;
21810;SDS011;11067;48.788;9.208;2023-02-11T04:42:21;33.67;;;18.10;;
21810;SDS011;11067;48.788;9.208;2023-02-11T04:44:46;36.07;;;17.80;;
21810;SDS011;11067;48.788;9.208;2023-02-11T04:47:12;34.97;;;17.73;;
21810;SDS011;11067;48.788;9.208;2023-02-11T04:49:39;33.10;;;17.67;;
21810;SDS011;11067;48.788;9.208;2023-02-11T04:52:05;32.38;;;17.60;;
21810;SDS011;11067;48.788;9.208;2023-02-11T04:54:30;34.63;;;18.27;;
21810;SDS011;11067;48.788;9.208;2023-02-11T04:56:56;34.60;;;18.48;;
21810;SDS011;11067;48.788;9.208;2023-02-11T04:59:21;33.35;;;18.45;;
21810;SDS011;11067;48.788;9.208;2023-02-11T05:01:47;30.95;;;17.92;;
21810;SDS011;11067;48.788;9.208;2023-02-11T05:04:13;35.20;;;17.70;;
21810;SDS011;11067;48.788;9.208;2023-02-11T05:06:39;34.83;;;17.70;;
21810;SDS011;11067;48.788;9.208;2023-02-11T05:09:05;33.17;;;18.08;;
21810;SDS011;11067;48.788;9.208;2023-02-11T05:11:30;33.35;;;17.45;;
21810;SDS011;11067;48.788;9.208;2023-02-11T05:13:56;34.10;;;17.48;;
21810;SDS011;11067;48.788;9.208;2023-02-11T05:16:21;34.53;;;18.40;;
21810;SDS011;11067;48.788;9.208;2023-02-11T05:18:47;32.90;;;18.58;;
21810;SDS011;11067;48.788;9.208;2023-02-11T05:21:15;31.60;;;17.08;;
21810;SDS011;11067;48.788;9.208;2023-02-11T05:23:43;32.92;;;18.33;;
21810;SDS011;11067;48.788;9.208;2023-02-11T05:26:09;34.95;;;18.70;;
21810;SDS011;11067;48.788;9.208;2023-02-11T05:28:35;34.90;;;17.67;;
21810;SDS011;11067;48.788;9.208;2023-02-11T05:31:02;33.80;;;18.50;;
21810;SDS011;11067;48.788;9.208;2023-02-11T05:33:28;33.30;;;17.90;;
21810;SDS011;11067;48.788;9.208;2023-02-11T05:35:57;36.87;;;19.03;;
21810;SDS011;11067;48.788;9.208;2023-02-11T05:38:30;33.83;;;18.20;;
21810;SDS011;11067;48.788;9.208;2023-02-11T05:40:56;33.38;;;18.52;;
21810;SDS011;11067;48.788;9.208;2023-02-11T05:43:21;39.10;;;18.88;;
21810;SDS011;11067;48.788;9.208;2023-02-11T05:45:47;36.40;;;18.83;;
21810;SDS011;11067;48.788;9.208;2023-02-11T05:48:12;34.90;;;18.55;;
21810;SDS011;11067;48.788;9.208;2023-02-11T05:50:38;31.45;;;18.10;;
21810;SDS011;11067;48.788;9.208;2023-02-11T05:53:04;33.83;;;17.50;;
21810;SDS011;11067;48.788;9.208;2023-02-11T05:55:31;39.08;;;18.77;;
21810;SDS011;11067;48.788;9.208;2023-02-11T05:57:56;33.27;;;18.37;;
21810;SDS011;11067;48.788;9.208;2023-02-11T06:00:22;36.37;;;18.53;;
21810;SDS011;11067;48.788;9.208;2023-02-11T06:02:48;36.17;;;18.67;;
21810;SDS011;11067;48.788;9.208;2023-02-11T06:05:13;33.97;;;17.48;;
21810;SDS011;11067;48.788;9.208;2023-02-11T06:07:39;32.75;;;17.77;;
21810;SDS011;11067;48.788;9.208;2023-02-11T06:10:05;33.33;;;17.90;;
21810;SDS011;11067;48.788;9.208;2023-02-11T06:12:31;32.80;;;17.85;;
21810;SDS011;11067;48.788;9.208;2023-02-11T06:14:56;31.23;;;18.07;;
21810;SDS011;11067;48.788;9.208;2023-02-11T06:17:22;33.67;;;17.30;;
21810;SDS011;11067;48.788;9.208;2023-02-11T06:19:47;30.73;;;17.50;;
21810;SDS011;11067;48.788;9.208;2023-02-11T06:22:13;32.70;;;17.33;;
21810;SDS011;11067;48.788;9.208;2023-02-11T06:24:39;32.78;;;17.73;;
21810;SDS011;11067;48.788;9.208;2023-02-11T06:27:05;33.47;;;18.20;;
21810;SDS011;11067;48.788;9.208;2023-02-11T06:29:30;31.80;;;18.03;;
21810;SDS011;11067;48.788;9.208;2023-02-11T06:31:56;35.73;;;18.40;;
21810;SDS011;11067;48.788;9.208;2023-02-11T06:34:21;32.37;;;18.80;;
21810;SDS011;11067;48.788;9.208;2023-02-11T06:36:47;36.23;;;18.43;;
21810;SDS011;11067;48.788;9.208;2023-02-11T06:39:12;34.53;;;18.13;;
21810;SDS011;11067;48.788;9.208;2023-02-11T06:41:38;34.03;;;18.53;;
21810;SDS011;11067;48.788;9.208;2023-02-11T06:44:04;31.27;;;18.03;;
21810;SDS011;11067;48.788;9.208;2023-02-11T06:46:30;35.50;;;18.15;;
21810;SDS011;11067;48.788;9.208;2023-02-11T06:48:55;31.00;;;17.48;;
21810;SDS011;11067;48.788;9.208;2023-02-11T06:51:21;33.17;;;18.60;;
21810;SDS011;11067;48.788;9.208;2023-02-11T06:53:46;34.87;;;18.40;;
21810;SDS011;11067;48.788;9.208;2023-02-11T06:56:14;34.08;;;17.67;;
21810;SDS011;11067;48.788;9.208;2023-02-11T06:58:41;33.20;;;18.57;;
21810;SDS011;11067;48.788;9.208;2023-02-11T07:01:07;34.20;;;17.92;;
21810;SDS011;11067;48.788;9.208;2023-02-11T07:03:36;34.75;;;18.35;;
21810;SDS011;11067;48.788;9.208;2023-02-11T07:06:03;34.93;;;18.27;;
21810;SDS011;11067;48.788;9.208;2023-02-11T07:08:31;34.58;;;18.95;;
21810;SDS011;11067;48.788;9.208;2023-02-11T07:11:00;31.83;;;17.85;;
21810;SDS011;11067;48.788;9.208;2023-02-11T07:13:32;32.63;;;17.92;;
21810;SDS011;11067;48.788;9.208;2023-02-11T07:15:57;32.38;;;18.13;;
21810;SDS011;11067;48.788;9.208;2023-02-11T07:18:23;34.90;;;18.73;;
21810;SDS011;11067;48.788;9.208;2023-02-11T07:20:48;33.43;;;17.90;;
21810;SDS011;11067;48.788;9.208;2023-02-11T07:23:14;30.77;;;17.43;;
21810;SDS011;11067;48.788;9.208;2023-02-11T07:25:39;31.87;;;18.23;;
21810;SDS011;11067;48.788;9.208;2023-02-11T07:28:05;32.53;;;17.97;;
21810;SDS011;11067;48.788;9.208;2023-02-11T07:30:30;32.47;;;18.27;;
21810;SDS011;11067;48.788;9.208;2023-02-11T07:32:56;34.80;;;17.50;;
21810;SDS011;11067;48.788;9.208;2023-02-11T07:35:21;34.33;;;17.07;;
21810;SDS011;11067;48.788;9.208;2023-02-11T07:37:47;36.30;;;17.38;;
21810;SDS011;11067;48.788;9.208;2023-02-11T07:40:12;31.83;;;16.98;;
21810;SDS011;11067;48.788;9.208;2023-02-11T07:42:38;35.08;;;17.75;;
21810;SDS011;11067;48.788;9.208;2023-02-11T07:45:05;35.17;;;18.60;;
21810;SDS011;11067;48.788;9.208;2023-02-11T07:47:32;31.00;;;17.33;;
21810;SDS011;11067;48.788;9.208;2023-02-11T07:49:58;32.07;;;17.10;;
21810;SDS011;11067;48.788;9.208;2023-02-11T07:52:24;33.27;;;17.37;;
21810;SDS011;11067;48.788;9.208;2023-02-11T07:54:49;32.83;;;18.07;;
21810;SDS011;11067;48.788;9.208;2023-02-11T07:57:15;38.53;;;19.23;;
21810;SDS011;11067;48.788;9.208;2023-02-11T07:59:40;32.83;;;17.90;;
21810;SDS011;11067;48.788;9.208;2023-02-11T08:02:06;38.00;;;18.58;;
21810;SDS011;11067;48.788;9.208;2023-02-11T08:04:33;30.37;;;17.30;;
21810;SDS011;11067;48.788;9.208;2023-02-11T08:06:58;32.00;;;17.40;;
21810;SDS011;11067;48.788;9.208;2023-02-11T08:09:24;32.80;;;18.00;;
21810;SDS011;11067;48.788;9.208;2023-02-11T08:11:49;31.40;;;17.87;;
21810;SDS011;11067;48.788;9.208;2023-02-11T08:14:15;34.63;;;18.17;;
21810;SDS011;11067;48.788;9.208;2023-02-11T08:16:41;36.63;;;18.27;;
21810;SDS011;11067;48.788;9.208;2023-02-11T08:19:09;31.83;;;17.60;;
21810;SDS011;11067;48.788;9.208;2023-02-11T08:21:36;34.33;;;18.55;;
21810;SDS011;11067;48.788;9.208;2023-02-11T08:24:03;32.50;;;18.27;;
21810;SDS011;11067;48.788;9.208;2023-02-11T08:26:29;31.63;;;17.77;;
21810;SDS011;11067;48.788;9.208;2023-02-11T08:28:58;33.10;;;18.20;;
21810;SDS011;11067;48.788;9.208;2023-02-11T08:31:33;35.03;;;18.97;;
21810;SDS011;11067;48.788;9.208;2023-02-11T08:33:59;35.00;;;18.17;;
21810;SDS011;11067;48.788;9.208;2023-02-11T08:36:27;34.27;;;18.90;;
21810;SDS011;11067;48.788;9.208;2023-02-11T08:38:56;34.25;;;18.42;;
21810;SDS011;11067;48.788;9.208;2023-02-11T08:41:23;33.05;;;19.08;;
21810;SDS011;11067;48.788;9.208;2023-02-11T08:43:50;33.30;;;18.63;;
21810;SDS011;11067;48.788;9.208;2023-02-11T08:46:16;34.03;;;19.40;;
21810;SDS011;11067;48.788;9.208;2023-02-11T08:48:43;32.17;;;18.80;;
21810;SDS011;11067;48.788;9.208;2023-02-11T08:51:17;35.65;;;19.42;;
21810;SDS011;11067;48.788;9.208;2023-02-11T08:53:47;31.48;;;18.05;;
21810;SDS011;11067;48.788;9.208;2023-02-11T08:56:14;33.90;;;18.60;;
21810;SDS011;11067;48.788;9.208;2023-02-11T08:58:41;33.23;;;18.73;;
21810;SDS011;11067;48.788;9.208;2023-02-11T09:01:10;36.65;;;18.45;;
21810;SDS011;11067;48.788;9.208;2023-02-11T09:03:46;32.25;;;17.90;;
21810;SDS011;11067;48.788;9.208;2023-02-11T09:06:12;35.00;;;18.03;;
21810;SDS011;11067;48.788;9.208;2023-02-11T09:08:40;30.93;;;17.60;;
21810;SDS011;11067;48.788;9.208;2023-02-11T09:11:07;34.15;;;17.98;;
21810;SDS011;11067;48.788;9.208;2023-02-11T09:13:34;31.70;;;17.92;;
21810;SDS011;11067;48.788;9.208;2023-02-11T09:16:00;36.33;;;19.23;;
21810;SDS011;11067;48.788;9.208;2023-02-11T09:18:27;30.92;;;18.35;;
21810;SDS011;11067;48.788;9.208;2023-02-11T09:21:00;34.33;;;18.97;;
21810;SDS011;11067;48.788;9.208;2023-02-11T09:23:30;34.65;;;18.58;;
21810;SDS011;11067;48.788;9.208;2023-02-11T09:25:58;33.85;;;19.00;;
21810;SDS011;11067;48.788;9.208;2023-02-11T09:28:34;32.22;;;18.15;;
21810;SDS011;11067;48.788;9.208;2023-02-11T09:31:03;35.63;;;19.20;;
21810;SDS011;11067;48.788;9.208;2023-02-11T09:33:33;34.83;;;19.20;;
21810;SDS011;11067;48.788;9.208;2023-02-11T09:36:00;33.50;;;18.63;;
21810;SDS011;11067;48.788;9.208;2023-02-11T09:38:27;31.65;;;18.00;;
21810;SDS011;11067;48.788;9.208;2023-02-11T09:40:52;31.70;;;18.38;;
21810;SDS011;11067;48.788;9.208;2023-02-11T09:43:19;33.92;;;18.50;;
21810;SDS011;11067;48.788;9.208;2023-02-11T09:45:56;31.63;;;17.83;;
21810;SDS011;11067;48.788;9.208;2023-02-11T09:48:23;31.88;;;17.40;;
21810;SDS011;11067;48.788;9.208;2023-02-11T09:50:53;35.40;;;18.53;;
21810;SDS011;11067;48.788;9.208;2023-02-11T09:53:23;33.93;;;18.93;;
21810;SDS011;11067;48.788;9.208;2023-02-11T09:55:56;32.65;;;17.88;;
21810;SDS011;11067;48.788;9.208;2023-02-11T09:58:34;33.83;;;18.50;;
21810;SDS011;11067;48.788;9.208;2023-02-11T10:04:21;29.55;;;17.52;;
21810;SDS011;11067;48.788;9.208;2023-02-11T10:07:05;31.27;;;17.33;;
21810;SDS011;11067;48.788;9.208;2023-02-11T10:09:55;32.33;;;18.05;;
21810;SDS011;11067;48.788;9.208;2023-02-11T10:15:37;31.35;;;18.60;;
21810;SDS011;11067;48.788;9.208;2023-02-11T10:21:07;33.42;;;17.90;;
21810;SDS011;11067;48.788;9.208;2023-02-11T10:23:38;31.98;;;18.38;;
21810;SDS011;11067;48.788;9.208;2023-02-11T10:26:18;34.47;;;18.23;;
21810;SDS011;11067;48.788;9.208;2023-02-11T10:28:45;33.72;;;19.48;;
21810;SDS011;11067;48.788;9.208;2023-02-11T10:36:11;34.75;;;17.42;;
21810;SDS011;11067;48.788;9.208;2023-02-11T10:38:38;31.42;;;17.70;;
21810;SDS011;11067;48.788;9.208;2023-02-11T10:41:04;30.05;;;17.90;;
21810;SDS011;11067;48.788;9.208;2023-02-11T10:43:31;29.75;;;18.08;;
21810;SDS011;11067;48.788;9.208;2023-02-11T10:45:57;29.88;;;17.92;;
21810;SDS011;11067;48.788;9.208;2023-02-11T10:53:47;31.42;;;16.55;;
21810;SDS011;11067;48.788;9.208;2023-02-11T10:56:21;26.27;;;16.63;;
21810;SDS011;11067;48.788;9.208;2023-02-11T10:58:57;27.98;;;16.95;;
21810;SDS011;11067;48.788;9.208;2023-02-11T11:01:40;26.95;;;16.42;;
21810;SDS011;11067;48.788;9.208;2023-02-11T11:06:53;28.67;;;16.83;;
21810;SDS011;11067;48.788;9.208;2023-02-11T11:09:26;24.60;;;15.20;;
21810;SDS011;11067;48.788;9.208;2023-02-11T11:12:17;27.17;;;16.10;;
21810;SDS011;11067;48.788;9.208;2023-02-11T11:14:53;27.45;;;15.35;;
21810;SDS011;11067;48.788;9.208;2023-02-11T11:17:40;24.92;;;15.00;;
21810;SDS011;11067;48.788;9.208;2023-02-11T11:20:13;25.63;;;14.38;;
21810;SDS011;11067;48.788;9.208;2023-02-11T11:23:13;25.17;;;15.13;;
21810;SDS011;11067;48.788;9.208;2023-02-11T11:28:38;21.23;;;13.20;;
21810;SDS011;11067;48.788;9.208;2023-02-11T11:31:04;21.75;;;13.10;;
21810;SDS011;11067;48.788;9.208;2023-02-11T11:33:39;24.87;;;13.20;;
21810;SDS011;11067;48.788;9.208;2023-02-11T11:36:07;20.07;;;12.57;;
21810;SDS011;11067;48.788;9.208;2023-02-11T11:38:36;22.70;;;12.85;;
21810;SDS011;11067;48.788;9.208;2023-02-11T11:41:28;19.20;;;11.67;;
21810;SDS011;11067;48.788;9.208;2023-02-11T11:43:58;18.10;;;10.32;;
21810;SDS011;11067;48.788;9.208;2023-02-11T11:46:27;17.98;;;11.23;;
21810;SDS011;11067;48.788;9.208;2023-02-11T11:49:00;125.07;;;67.93;;
21810;SDS011;11067;48.788;9.208;2023-02-11T11:54:26;19.02;;;11.40;;
21810;SDS011;11067;48.788;9.208;2023-02-11T11:56:55;16.15;;;10.27;;
21810;SDS011;11067;48.788;9.208;2023-02-11T11:59:26;16.80;;;9.32;;
21810;SDS011;11067;48.788;9.208;2023-02-11T12:04:37;15.90;;;9.73;;
21810;SDS011;11067;48.788;9.208;2023-02-11T12:07:36;14.88;;;9.13;;
21810;SDS011;11067;48.788;9.208;2023-02-11T12:18:23;12.98;;;8.35;;
21810;SDS011;11067;48.788;9.208;2023-02-11T12:26:22;15.63;;;8.02;;
21810;SDS011;11067;48.788;9.208;2023-02-11T12:29:27;14.77;;;7.35;;
21810;SDS011;11067;48.788;9.208;2023-02-11T12:32:16;14.37;;;7.43;;
21810;SDS011;11067;48.788;9.208;2023-02-11T12:34:55;13.68;;;8.00;;
21810;SDS011;11067;48.788;9.208;2023-02-11T12:45:52;8.55;;;6.18;;
21810;SDS011;11067;48.788;9.208;2023-02-11T12:48:46;10.40;;;6.20;;
21810;SDS011;11067;48.788;9.208;2023-02-11T12:54:32;9.60;;;6.10;;
21810;SDS011;11067;48.788;9.208;2023-02-11T12:57:23;11.63;;;6.47;;
21810;SDS011;11067;48.788;9.208;2023-02-11T13:02:39;9.98;;;5.95;;
21810;SDS011;11067;48.788;9.208;2023-02-11T13:05:26;8.18;;;5.55;;
21810;SDS011;11067;48.788;9.208;2023-02-11T13:08:04;9.18;;;6.05;;
21810;SDS011;11067;48.788;9.208;2023-02-11T13:10:39;8.63;;;5.63;;
21810;SDS011;11067;48.788;9.208;2023-02-11T13:13:12;12.25;;;5.78;;
21810;SDS011;11067;48.788;9.208;2023-02-11T13:15:54;11.87;;;6.23;;
21810;SDS011;11067;48.788;9.208;2023-02-11T13:24:14;15.60;;;8.57;;
21810;SDS011;11067;48.788;9.208;2023-02-11T13:26:51;17.38;;;8.18;;
21810;SDS011;11067;48.788;9.208;2023-02-11T13:35:27;16.48;;;8.75;;
21810;SDS011;11067;48.788;9.208;2023-02-11T13:37:59;18.63;;;9.10;;
21810;SDS011;11067;48.788;9.208;2023-02-11T13:40:29;14.48;;;9.13;;
21810;SDS011;11067;48.788;9.208;2023-02-11T13:43:03;16.05;;;9.43;;
21810;SDS011;11067;48.788;9.208;2023-02-11T13:45:35;15.77;;;9.68;;
21810;SDS011;11067;48.788;9.208;2023-02-11T13:48:21;15.82;;;9.55;;
21810;SDS011;11067;48.788;9.208;2023-02-11T13:50:53;19.10;;;10.43;;
21810;SDS011;11067;48.788;9.208;2023-02-11T13:53:24;17.10;;;9.52;;
21810;SDS011;11067;48.788;9.208;2023-02-11T13:55:52;19.15;;;10.43;;
21810;SDS011;11067;48.788;9.208;2023-02-11T14:00:54;17.27;;;9.57;;
21810;SDS011;11067;48.788;9.208;2023-02-11T14:03:24;18.30;;;9.00;;
21810;SDS011;11067;48.788;9.208;2023-02-11T14:06:14;17.25;;;9.98;;
21810;SDS011;11067;48.788;9.208;2023-02-11T14:19:32;19.38;;;10.90;;
21810;SDS011;11067;48.788;9.208;2023-02-11T14:22:11;19.25;;;10.55;;
21810;SDS011;11067;48.788;9.208;2023-02-11T14:27:41;17.85;;;9.90;;
21810;SDS011;11067;48.788;9.208;2023-02-11T14:30:25;19.15;;;10.07;;
21810;SDS011;11067;48.788;9.208;2023-02-11T14:39:03;17.30;;;9.50;;
21810;SDS011;11067;48.788;9.208;2023-02-11T14:41:44;16.13;;;9.60;;
21810;SDS011;11067;48.788;9.208;2023-02-11T14:44:22;14.65;;;9.35;;
21810;SDS011;11067;48.788;9.208;2023-02-11T14:46:51;13.63;;;8.25;;
21810;SDS011;11067;48.788;9.208;2023-02-11T14:49:28;17.07;;;10.13;;
21810;SDS011;11067;48.788;9.208;2023-02-11T14:55:38;16.60;;;8.55;;
21810;SDS011;11067;48.788;9.208;2023-02-11T15:00:48;13.63;;;7.27;;
21810;SDS011;11067;48.788;9.208;2023-02-11T15:03:33;13.13;;;6.70;;
21810;SDS011;11067;48.788;9.208;2023-02-11T15:06:05;14.57;;;8.25;;
21810;SDS011;11067;48.788;9.208;2023-02-11T15:08:40;15.97;;;8.07;;
21810;SDS011;11067;48.788;9.208;2023-02-11T15:11:11;16.95;;;9.95;;
21810;SDS011;11067;48.788;9.208;2023-02-11T15:13:39;17.77;;;9.48;;
21810;SDS011;11067;48.788;9.208;2023-02-11T15:16:11;16.35;;;8.27;;
21810;SDS011;11067;48.788;9.208;2023-02-11T15:18:39;17.50;;;9.63;;
21810;SDS011;11067;48.788;9.208;2023-02-11T15:21:07;16.60;;;9.47;;
21810;SDS011;11067;48.788;9.208;2023-02-11T15:23:34;15.83;;;9.90;;
21810;SDS011;11067;48.788;9.208;2023-02-11T15:26:01;19.30;;;10.43;;
21810;SDS011;11067;48.788;9.208;2023-02-11T15:28:33;16.50;;;9.02;;
21810;SDS011;11067;48.788;9.208;2023-02-11T15:31:12;16.60;;;9.57;;
21810;SDS011;11067;48.788;9.208;2023-02-11T15:33:39;15.95;;;9.27;;
21810;SDS011;11067;48.788;9.208;2023-02-11T15:36:05;14.30;;;9.13;;
21810;SDS011;11067;48.788;9.208;2023-02-11T15:38:31;15.70;;;8.82;;
21810;SDS011;11067;48.788;9.208;2023-02-11T15:40:57;15.38;;;8.57;;
21810;SDS011;11067;48.788;9.208;2023-02-11T15:43:39;14.40;;;9.23;;
21810;SDS011;11067;48.788;9.208;2023-02-11T15:46:08;18.05;;;9.90;;
21810;SDS011;11067;48.788;9.208;2023-02-11T15:48:36;17.13;;;9.07;;
21810;SDS011;11067;48.788;9.208;2023-02-11T15:51:28;15.73;;;9.10;;
21810;SDS011;11067;48.788;9.208;2023-02-11T15:53:55;14.47;;;8.93;;
21810;SDS011;11067;48.788;9.208;2023-02-11T15:59:15;20.88;;;10.88;;
21810;SDS011;11067;48.788;9.208;2023-02-11T16:01:43;16.73;;;10.63;;
21810;SDS011;11067;48.788;9.208;2023-02-11T16:04:20;18.17;;;10.32;;
21810;SDS011;11067;48.788;9.208;2023-02-11T16:06:50;15.57;;;9.57;;
21810;SDS011;11067;48.788;9.208;2023-02-11T16:14:27;15.20;;;9.40;;
21810;SDS011;11067;48.788;9.208;2023-02-11T16:17:10;20.13;;;9.90;;
21810;SDS011;11067;48.788;9.208;2023-02-11T16:19:45;20.47;;;11.23;;
21810;SDS011;11067;48.788;9.208;2023-02-11T16:22:16;19.75;;;10.63;;
21810;SDS011;11067;48.788;9.208;2023-02-11T16:24:45;18.33;;;10.70;;
21810;SDS011;11067;48.788;9.208;2023-02-11T16:27:20;18.80;;;11.15;;
21810;SDS011;11067;48.788;9.208;2023-02-11T16:29:57;18.92;;;11.18;;
21810;SDS011;11067;48.788;9.208;2023-02-11T16:32:24;22.60;;;12.13;;
21810;SDS011;11067;48.788;9.208;2023-02-11T16:34:55;17.92;;;11.07;;
21810;SDS011;11067;48.788;9.208;2023-02-11T16:37:23;19.73;;;10.90;;
21810;SDS011;11067;48.788;9.208;2023-02-11T16:39:52;20.75;;;11.93;;
21810;SDS011;11067;48.788;9.208;2023-02-11T16:42:18;18.48;;;10.40;;
21810;SDS011;11067;48.788;9.208;2023-02-11T16:44:43;19.17;;;11.80;;
21810;SDS011;11067;48.788;9.208;2023-02-11T16:47:15;21.52;;;12.27;;
21810;SDS011;11067;48.788;9.208;2023-02-11T16:49:46;20.58;;;11.15;;